Tiempo atmosférico en la estación meteorológica de Fraga, Huesca (170 m.)



Fecha
DESCASC
Temp. máxima en grados centígrados (hora)
DESCASC
Temp. mínima en grados centígrados (hora)
DESCASC
Temp. media en grados centígrados
DESCASC
Racha de viento máxima en m/sg (hora)
DESCASC
Velocidad máxima media en intervalos de 10 minutos(hora)
DESCASC
Precipitaciones diarias en mm
DESCASC
Precipitaciones de 00:00 a 06:00 en mm
DESCASC
Precipitaciones de 06:00 a 12:00 en mm
DESCASC
Precipitaciones de 12:00 a 18:00 en mm
DESCASC
Precipitaciones de 18:00 a 24:00 en mm
DESCASC
26-03-2020 14.3 (14:30) 4.6 (23:59) 9.5 14.17 (15:30) 11.67 (15:30) 0 0 0 0 0
25-03-2020 11.5 (17:00) 5.4 (08:30) 8.5 9.72 (07:30) 6.94 (07:50) 1.2 0.6 0.6 0 0
24-03-2020 15.9 (15:30) 8.7 (23:59) 12.3 8.89 (19:00) 5.83 (00:10) 1.8 0 0 0 1.8
23-03-2020 16.5 (12:00) 8.7 (06:30) 12.6 8.89 (13:30) 5.83 (23:50) 11.2 0 0 10.8 0.4
22-03-2020 18.5 (13:40) 4.7 (07:30) 11.6 7.78 (15:10) 5 (15:10) 0 0 0 0 0
21-03-2020 18.5 (16:40) 4.3 (00:00) 11.4 7.5 (19:10) 4.44 (19:30) 0 0 0 0 0
20-03-2020 17.9 (15:40) 4.9 (00:00) 11.4 8.89 (16:40) 5.28 (17:40) 0 0 0 0 0
19-03-2020 17.6 (13:50) 6.8 (00:00) 12.2 7.78 (18:50) 4.72 (18:10) 0.2 0 0.2 0 0
18-03-2020 17.5 (16:00) 8.4 (00:00) 12.9 2.78 (14:50) 1.67 (20:00) 0 0 0 0 0
17-03-2020 17.7 (16:10) 11.9 (00:00) 14.8 15 (01:10) 10.83 (01:10) 2 0 2 0 0
16-03-2020 13.1 (14:40) 10.8 (00:00) 12 17.78 (15:50) 13.33 (17:10) 9.2 4 4.2 1 0
15-03-2020 19.1 (15:10) 5.2 (00:00) 12.2 12.78 (16:20) 6.94 (16:20) 1 0 0 0 1
14-03-2020 19.2 (17:20) 7.2 (00:00) 13.2 5.56 (12:10) 3.89 (19:20) 0 0 0 0 0
13-03-2020 19.6 (16:50) 10.9 (07:10) 15.3 5 (03:10) 3.06 (17:50) 0 0 0 0 0
12-03-2020 26.7 (16:20) 7.9 (00:00) 17.3 9.72 (20:00) 5 (20:00) 0 0 0 0 0
11-03-2020 25.2 (16:50) 5.1 (00:00) 15.2 5 (17:10) 3.33 (19:20) 0 0 0 0 0
10-03-2020 21.3 (16:50) 8.2 (00:00) 14.7 6.11 (00:40) 4.17 (00:40) 0 0 0 0 0
09-03-2020 16.4 (15:30) 10 (00:00) 13.2 23.61 (15:50) 15.28 (16:00) 0 0 0 0 0
08-03-2020 20.4 (16:10) 5.6 (00:00) 13 10.28 (16:50) 5.56 (17:20) 0 0 0 0 0
07-03-2020 18 (16:00) 6 (00:00) 12 18.33 (17:00) 11.39 (17:00) 0 0 0 0 0
06-03-2020 12.7 (13:30) 6.8 (00:00) 9.8 26.94 (15:20) 17.22 (16:00) 0 0 0 0 0
05-03-2020 21.4 (14:10) 10 (00:00) 15.7 20.83 (14:20) 13.61 (14:20) 0.6 0 0 0.6 0
04-03-2020 22.1 (15:10) 9.7 (00:00) 15.9 17.22 (14:00) 12.22 (14:00) 0 0 0 0 0
03-03-2020 15.5 (19:00) 5.7 (00:00) 10.6 22.5 (19:40) 14.44 (20:10) 0.8 0 0.6 0.2 0
02-03-2020 17.7 (06:50) 7.8 (00:00) 12.8 25.83 (07:50) 15.56 (07:50) 1.8 0.2 1.6 0 0
01-03-2020 20.7 (16:50) 11.1 (00:00) 15.9 17.5 (13:10) 11.67 (15:10) 0 0 0 0 0
29-02-2020 17.7 (16:40) 6.8 (00:00) 12.3 8.61 (23:59) 5.83 (23:40) 0 0 0 0 0
28-02-2020 20.4 (16:10) 10.2 (00:00) 15.3 16.67 (00:10) 11.11 (00:10) 0 0 0 0 0

Gráficas

Temp. máximas Temp. mínimas Temp. medias Precipitaciones Rachas de viento máximas Velocidades máximas media en intervalos de 10 minutos

Datos horarios

Fecha y hora oficial Temperatura (ºC) Velocidad del viento (km/h) Dirección del viento Racha (km/h) Dirección de racha Precipitación (mm) Presión (hPa) Tendencia (hPa) Humedad (%)
2020-03-28 23:00:00 13.4 3 Sur 19 Sudoeste 0 -- -- 55
2020-03-28 22:00:00 14.1 10 Sudoeste 19 Sur 0 -- -- 52
2020-03-28 21:00:00 14.5 7 Sudoeste 14 Sudoeste 0 -- -- 51
2020-03-28 20:00:00 14.9 4 Sudoeste 11 Sudoeste 0 -- -- 51
2020-03-28 19:00:00 16.8 6 Sudoeste 11 Sudoeste 0 -- -- 46
2020-03-28 18:00:00 18 5 Sudoeste 22 Noroeste 0 -- -- 45
2020-03-28 17:00:00 18.1 5 Sur 14 Sudoeste 0 -- -- 43
2020-03-28 16:00:00 17.5 9 Sur 15 Sudeste 0 -- -- 43
2020-03-28 15:00:00 17.9 4 Norte 12 Norte 0 -- -- 46
2020-03-28 14:00:00 16.8 4 Este 16 Oeste 0 -- -- 47
2020-03-28 13:00:00 15.7 5 Oeste 14 Sudoeste 0 -- -- 53
2020-03-28 12:00:00 13.8 3 Noroeste 9 Noroeste 0 -- -- 60
2020-03-28 11:00:00 12.1 3 Oeste 7 Sudoeste 0 -- -- 64
2020-03-28 10:00:00 10.1 0 Calma 5 Oeste 0 -- -- 73
2020-03-28 09:00:00 8.5 0 Calma 7 Noroeste 0 -- -- 80
2020-03-28 08:00:00 7.4 5 Noroeste 14 Noroeste 0 -- -- 82
2020-03-28 07:00:00 7.7 0 Calma 5 Noroeste 0 -- -- 86
2020-03-28 06:00:00 8 0 Calma 8 Noroeste 0 -- -- 83
2020-03-28 05:00:00 8.3 4 Noroeste 6 Oeste 0 -- -- 83
2020-03-28 04:00:00 9.1 4 Oeste 9 Este 0 -- -- 81
2020-03-28 03:00:00 9.5 0 Calma 6 Sudoeste 0 -- -- 76
2020-03-28 02:00:00 9.9 4 Este 12 Este 0 -- -- 73
2020-03-28 01:00:00 10.6 8 Este 21 Sudeste 0 -- -- 67
2020-03-28 00:00:00 10.9 10 Sudeste 17 Sudeste 0 -- -- 63
2020-03-27 23:00:00 11.3 2 Este 9 Nordeste 0 -- -- 61
2020-03-27 22:00:00 11.9 5 Este 18 Este 0 -- -- 56
2020-03-27 21:00:00 12.4 7 Este 12 Este 0 -- -- 52
2020-03-27 20:00:00 12.8 5 Nordeste 6 Nordeste 0 -- -- 47
2020-03-27 19:00:00 13.6 0 Calma 7 Oeste 0 -- -- 41
2020-03-27 18:00:00 14.5 4 Oeste 15 Oeste 0 -- -- 43
2020-03-27 17:00:00 15 8 Sudoeste 19 Sudoeste 0 -- -- 41
2020-03-27 16:00:00 15 8 Sudoeste 20 Oeste 0 -- -- 43
2020-03-27 15:00:00 13.9 8 Sudoeste 23 Oeste 0 -- -- 49
2020-03-27 14:00:00 13 8 Oeste 19 Oeste 0 -- -- 56
2020-03-27 13:00:00 12.4 8 Oeste 20 Sudoeste 0 -- -- 57
2020-03-27 12:00:00 10.8 6 Noroeste 18 Noroeste 0 -- -- 65
2020-03-27 11:00:00 8.7 4 Oeste 9 Noroeste 0 -- -- 76
2020-03-27 10:00:00 5.7 3 Sur 8 Sur 0 -- -- 89
2020-03-27 09:00:00 3.8 0 Calma 4 Nordeste 0 -- -- 95
2020-03-27 08:00:00 1.4 0 Calma 2 Norte 0 -- -- 97
2020-03-27 07:00:00 0.8 0 Calma 3 Norte 0 -- -- 95
2020-03-27 06:00:00 1.4 0 Calma 5 Sudoeste 0 -- -- 95
2020-03-27 05:00:00 2 0 Calma 3 Sur 0 -- -- 93
2020-03-27 04:00:00 2.4 2 Norte 5 Norte 0 -- -- 93
2020-03-27 03:00:00 2.4 0 Calma 5 Noroeste 0 -- -- 92
2020-03-27 02:00:00 3.1 0 Calma 10 Noroeste 0 -- -- 91
2020-03-27 01:00:00 3.6 3 Oeste 7 Oeste 0 -- -- 89
2020-03-27 00:00:00 4.6 0 Calma 10 Nordeste 0 -- -- 84
2020-03-26 23:00:00 5 5 Nordeste 11 Oeste 0 -- -- 83
2020-03-26 22:00:00 6.3 3 Sudeste 15 Este 0 -- -- 77
2020-03-26 21:00:00 6.8 10 Este 19 Sudeste 0 -- -- 75
2020-03-26 20:00:00 7.5 12 Este 26 Sudeste 0 -- -- 73
2020-03-26 19:00:00 7.9 10 Este 32 Sudeste 0 -- -- 73
2020-03-26 18:00:00 8.7 20 Este 33 Este 0 -- -- 68
2020-03-26 17:00:00 9.3 13 Este 29 Nordeste 0 -- -- 65
2020-03-26 16:00:00 9.9 10 Noroeste 51 Nordeste 0 -- -- 59
2020-03-26 15:00:00 14.1 7 Este 21 Nordeste 0 -- -- 50
2020-03-26 14:00:00 13.7 8 Este 22 Este 0 -- -- 51
2020-03-26 13:00:00 12.7 5 Norte 18 Nordeste 0 -- -- 57
2020-03-26 12:00:00 12 5 Este 13 Este 0 -- -- 61
2020-03-26 11:00:00 10.1 6 Nordeste 17 Norte 0 -- -- 64
2020-03-26 10:00:00 7.8 12 Noroeste 21 Oeste 0 -- -- 72
2020-03-26 09:00:00 6.8 4 Oeste 8 Oeste 0 -- -- 83
2020-03-26 08:00:00 5.1 2 Oeste 14 Oeste 0 -- -- 88
2020-03-26 07:00:00 5.9 8 Oeste 20 Oeste 0 -- -- 87
2020-03-26 06:00:00 6.4 3 Oeste 6 Sudoeste 0 -- -- 88
2020-03-26 05:00:00 7 3 Noroeste 6 Oeste 0 -- -- 88
2020-03-26 04:00:00 7 2 Noroeste 8 Noroeste 0 -- -- 87
2020-03-26 03:00:00 7 4 Noroeste 6 Oeste 0 -- -- 87
2020-03-26 02:00:00 7.1 3 Noroeste 4 Noroeste 0 -- -- 85
2020-03-26 01:00:00 7.7 0 Calma 8 Sudeste 0 -- -- 77
2020-03-26 00:00:00 7.9 4 Este 11 Sudeste 0 -- -- 78
2020-03-25 23:00:00 8.2 5 Este 12 Sudeste 0 -- -- 77
2020-03-25 22:00:00 8.5 7 Sudeste 13 Sudeste 0 -- -- 74
2020-03-25 21:00:00 9.1 5 Sudeste 8 Sudeste 0 -- -- 74
2020-03-25 20:00:00 9.5 2 Norte 6 Norte 0 -- -- 73
2020-03-25 19:00:00 10 3 Norte 6 Nordeste 0 -- -- 68
2020-03-25 18:00:00 10.6 4 Nordeste 10 Oeste 0 -- -- 67
2020-03-25 17:00:00 11.5 5 Sudoeste 10 Sur 0 -- -- 61
2020-03-25 16:00:00 10.2 4 Sur 14 Este 0 -- -- 65
2020-03-25 15:00:00 9.6 6 Nordeste 17 Este 0 -- -- 69
2020-03-25 14:00:00 10 6 Este 19 Nordeste 0 -- -- 65
2020-03-25 13:00:00 8.4 10 Nordeste 17 Nordeste 0 -- -- 75
2020-03-25 12:00:00 7.2 4 Este 11 Nordeste 0 -- -- 82
2020-03-25 11:00:00 6.1 7 Sudeste 24 Este 0 -- -- 83
2020-03-25 10:00:00 5.9 18 Este 35 Este 0 -- -- 78
2020-03-25 09:00:00 5.6 19 Este 35 Este 0.4 -- -- 81
2020-03-25 08:00:00 6.1 23 Nordeste 35 Nordeste 0.2 -- -- 85
2020-03-25 07:00:00 6.5 24 Nordeste 30 Nordeste 0 -- -- 84
2020-03-25 06:00:00 7.5 15 Nordeste 23 Nordeste 0.4 -- -- 86
2020-03-25 05:00:00 8.2 3 Norte 7 Norte 0 -- -- 89
2020-03-25 04:00:00 8.3 3 Nordeste 10 Nordeste 0 -- -- 88
2020-03-25 03:00:00 8.3 4 Este 13 Este 0 -- -- 89
2020-03-25 02:00:00 8.2 6 Este 19 Nordeste 0.2 -- -- 92
2020-03-25 01:00:00 8.5 13 Nordeste 18 Este 0 -- -- 92
2020-03-25 00:00:00 8.7 8 Nordeste 14 Este 0.4 -- -- 91
2020-03-24 23:00:00 9.5 4 Este 16 Sudeste 1.4 -- -- 87
2020-03-24 22:00:00 10.6 8 Sudeste 18 Sudeste 0 -- -- 76
2020-03-24 21:00:00 10.8 12 Sudeste 21 Este 0 -- -- 76
2020-03-24 20:00:00 11.2 13 Sudeste 29 Sudeste 0 -- -- 74
2020-03-24 19:00:00 12.3 15 Sudeste 32 Sudeste 0 -- -- 66
2020-03-24 18:00:00 13.3 17 Sudeste 27 Sudeste 0 -- -- 59
2020-03-24 17:00:00 15 13 Sur 29 Sur 0 -- -- 59
2020-03-24 16:00:00 15.4 14 Sur 26 Sur 0 -- -- 61
2020-03-24 15:00:00 15.2 10 Sur 23 Sur 0 -- -- 57
2020-03-24 14:00:00 15.5 6 Sur 15 Sudoeste 0 -- -- 57
2020-03-24 13:00:00 15.6 6 Sudoeste 13 Sur 0 -- -- 58
2020-03-24 12:00:00 14.6 6 Sur 15 Sudoeste 0 -- -- 58
2020-03-24 11:00:00 14.5 7 Sur 25 Nordeste 0 -- -- 66
2020-03-24 10:00:00 13.6 9 Este 23 Este 0 -- -- 67
2020-03-24 09:00:00 11.5 19 Nordeste 28 Nordeste 0 -- -- 77
2020-03-24 08:00:00 10.3 15 Nordeste 26 Nordeste 0 -- -- 83
2020-03-24 07:00:00 9.6 6 Nordeste 15 Nordeste 0 -- -- 87
2020-03-24 06:00:00 10 13 Nordeste 26 Nordeste 0 -- -- 84
2020-03-24 05:00:00 9.9 14 Nordeste 26 Nordeste 0 -- -- 86
2020-03-24 04:00:00 10.4 16 Nordeste 28 Nordeste 0 -- -- 85
2020-03-24 03:00:00 10.1 6 Nordeste 20 Nordeste 0 -- -- 88
2020-03-24 02:00:00 10.2 14 Nordeste 20 Este 0 -- -- 89
2020-03-24 01:00:00 10.4 3 Este 26 Nordeste 0 -- -- 87
2020-03-24 00:00:00 10.7 19 Nordeste 27 Nordeste 0 -- -- 87
2020-03-23 23:00:00 11.3 6 Este 10 Este 0 -- -- 88
2020-03-23 22:00:00 11.5 3 Este 6 Nordeste 0 -- -- 92
2020-03-23 21:00:00 12.3 4 Este 7 Nordeste 0 -- -- 90
2020-03-23 20:00:00 12.5 3 Sur 10 Sudeste 0 -- -- 90
2020-03-23 19:00:00 13.1 8 Sudeste 18 Sudeste 0.4 -- -- 85
2020-03-23 18:00:00 13.5 6 Sudeste 24 Sudeste 0 -- -- 85
2020-03-23 17:00:00 14.4 4 Oeste 10 Oeste 0 -- -- 85
2020-03-23 16:00:00 13.7 4 Norte 12 Sur 0.4 -- -- 87
2020-03-23 15:00:00 12.5 14 Sur 30 Sudeste 5.6 -- -- 88
2020-03-23 14:00:00 13.3 16 Nordeste 32 Este 3.8 -- -- 86
2020-03-23 13:00:00 14.7 11 Nordeste 30 Nordeste 1 -- -- 84
2020-03-23 12:00:00 16.5 12 Este 28 Nordeste 0 -- -- 65
2020-03-23 11:00:00 15.3 13 Nordeste 28 Nordeste 0 -- -- 70
2020-03-23 10:00:00 13.4 14 Nordeste 22 Nordeste 0 -- -- 76
2020-03-23 09:00:00 12.1 10 Nordeste 20 Nordeste 0 -- -- 81
2020-03-23 08:00:00 9.8 0 Calma 3 Noroeste 0 -- -- 90
2020-03-23 07:00:00 8.8 0 Calma 3 Sudoeste 0 -- -- 92
2020-03-23 06:00:00 8.8 2 Oeste 5 Noroeste 0 -- -- 92
2020-03-23 05:00:00 8.9 2 Oeste 6 Sudoeste 0 -- -- 91
2020-03-23 04:00:00 9.5 0 Calma 4 Noroeste 0 -- -- 89
2020-03-23 03:00:00 9.9 2 Noroeste 4 Noroeste 0 -- -- 87
2020-03-23 02:00:00 9.8 0 Calma 7 Oeste 0 -- -- 88
2020-03-23 01:00:00 10.2 3 Oeste 14 Este 0 -- -- 85
2020-03-23 00:00:00 10.9 7 Nordeste 16 Este 0 -- -- 84
2020-03-22 23:00:00 12 9 Este 14 Este 0 -- -- 80
2020-03-22 22:00:00 12.4 0 Calma 6 Nordeste 0 -- -- 79
2020-03-22 21:00:00 13 0 Calma 7 Sudeste 0 -- -- 76
2020-03-22 20:00:00 13.5 5 Sudeste 8 Sur 0 -- -- 72
2020-03-22 19:00:00 14.1 7 Sur 20 Sur 0 -- -- 69
2020-03-22 18:00:00 15 10 Sur 24 Sur 0 -- -- 66
2020-03-22 17:00:00 15.4 11 Sur 24 Sudeste 0 -- -- 66
2020-03-22 16:00:00 14.9 15 Sur 28 Sudeste 0 -- -- 66
2020-03-22 15:00:00 15.3 18 Sur 27 Sudeste 0 -- -- 67
2020-03-22 14:00:00 18 8 Este 18 Nordeste 0 -- -- 49
2020-03-22 13:00:00 17.3 5 Este 12 Sudeste 0 -- -- 50
2020-03-22 12:00:00 15.7 5 Sur 9 Norte 0 -- -- 57
2020-03-22 11:00:00 13.1 3 Sur 9 Sur 0 -- -- 73
2020-03-22 10:00:00 10.2 3 Sudoeste 7 Sudoeste 0 -- -- 82
2020-03-22 09:00:00 7.5 0 Calma 4 Sudoeste 0 -- -- 93
2020-03-22 08:00:00 5.3 0 Calma 5 Oeste 0 -- -- 95
2020-03-22 07:00:00 5.1 0 Calma 7 Oeste 0 -- -- 92
2020-03-22 06:00:00 6.2 2 Noroeste 6 Noroeste 0 -- -- 93
2020-03-22 05:00:00 6.7 0 Calma 5 Oeste 0 -- -- 93
2020-03-22 04:00:00 6.6 3 Oeste 5 Noroeste 0 -- -- 91
2020-03-22 03:00:00 7.7 2 Noroeste 4 Noroeste 0 -- -- 88
2020-03-22 02:00:00 8.6 0 Calma 8 Sur 0 -- -- 85
2020-03-22 01:00:00 9.9 0 Calma 6 Este 0 -- -- 80
2020-03-22 00:00:00 10.6 2 Nordeste 18 Sudeste 0 -- -- 77
2020-03-21 23:00:00 11.5 9 Sudeste 18 Sudeste 0 -- -- 73
2020-03-21 22:00:00 12.2 10 Sudeste 23 Sudeste 0 -- -- 70
2020-03-21 21:00:00 12.6 12 Sudeste 21 Sudeste 0 -- -- 69
2020-03-21 20:00:00 13.7 12 Sudeste 27 Sudeste 0 -- -- 63
2020-03-21 19:00:00 15.5 13 Sudeste 24 Sudeste 0 -- -- 56
2020-03-21 18:00:00 17.9 5 Nordeste 12 Este 0 -- -- 46
2020-03-21 17:00:00 18.4 5 Este 15 Nordeste 0 -- -- 44
2020-03-21 16:00:00 18.1 7 Nordeste 18 Nordeste 0 -- -- 46
2020-03-21 15:00:00 17.4 7 Sudeste 18 Sur 0 -- -- 44
2020-03-21 14:00:00 16.7 6 Sudeste 17 Sudeste 0 -- -- 47
2020-03-21 13:00:00 15.9 7 Este 15 Nordeste 0 -- -- 50
2020-03-21 12:00:00 14.6 4 Este 12 Nordeste 0 -- -- 56
2020-03-21 11:00:00 12.6 4 Este 12 Nordeste 0 -- -- 65
2020-03-21 10:00:00 8.6 3 Sudoeste 5 Sudoeste 0 -- -- 83
2020-03-21 09:00:00 6.5 0 Calma 3 Sur 0 -- -- 93
2020-03-21 08:00:00 4.9 0 Calma 2 Oeste 0 -- -- 95
2020-03-21 07:00:00 4.7 0 Calma 6 Oeste 0 -- -- 94
2020-03-21 06:00:00 5.1 3 Noroeste 5 Noroeste 0 -- -- 93
2020-03-21 05:00:00 5.9 0 Calma 4 Oeste 0 -- -- 92
2020-03-21 04:00:00 6.4 0 Calma 3 Oeste 0 -- -- 90
2020-03-21 03:00:00 7 0 Calma 6 Sur 0 -- -- 89
2020-03-21 02:00:00 8.1 0 Calma 3 Sudeste 0 -- -- 85
2020-03-21 01:00:00 8.3 0 Calma 11 Nordeste 0 -- -- 85
2020-03-21 00:00:00 10 7 Nordeste 12 Este 0 -- -- 78
2020-03-20 23:00:00 10.8 5 Este 10 Sudeste 0 -- -- 76
2020-03-20 22:00:00 11.4 6 Este 12 Sudeste 0 -- -- 73
2020-03-20 21:00:00 12.2 9 Sudeste 18 Sudeste 0 -- -- 69
2020-03-20 20:00:00 13.2 9 Sudeste 19 Sudeste 0 -- -- 65
2020-03-20 19:00:00 14.3 13 Sur 27 Sur 0 -- -- 62
2020-03-20 18:00:00 16 16 Sudeste 28 Sur 0 -- -- 53
2020-03-20 17:00:00 17.3 13 Sur 32 Sudeste 0 -- -- 49
2020-03-20 16:00:00 17.9 9 Sur 21 Sudeste 0 -- -- 47
2020-03-20 15:00:00 17.7 6 Este 17 Nordeste 0 -- -- 52
2020-03-20 14:00:00 17 7 Este 16 Nordeste 0 -- -- 54
2020-03-20 13:00:00 15.8 6 Este 18 Sudeste 0 -- -- 60
2020-03-20 12:00:00 15.5 8 Nordeste 17 Nordeste 0 -- -- 61
2020-03-20 11:00:00 13.4 6 Nordeste 13 Nordeste 0 -- -- 70
2020-03-20 10:00:00 9.8 2 Sur 5 Oeste 0 -- -- 84
2020-03-20 09:00:00 6.6 0 Calma 7 Norte 0 -- -- 95
2020-03-20 08:00:00 5 3 Sudoeste 6 Norte 0 -- -- 95
2020-03-20 07:00:00 4.9 0 Calma 5 Sur 0 -- -- 94
2020-03-20 06:00:00 5.6 4 Sudoeste 5 Sudoeste 0 -- -- 94
2020-03-20 05:00:00 6.3 2 Oeste 8 Norte 0 -- -- 91
2020-03-20 04:00:00 6.7 0 Calma 5 Oeste 0 -- -- 91
2020-03-20 03:00:00 7.8 3 Oeste 9 Este 0 -- -- 85
2020-03-20 02:00:00 9.3 6 Este 10 Sudeste 0 -- -- 81
2020-03-20 01:00:00 9.9 8 Sudeste 14 Sudeste 0 -- -- 81
2020-03-20 00:00:00 10 6 Sudeste 15 Sudeste 0 -- -- 83
2020-03-19 23:00:00 10.5 9 Sudeste 16 Este 0 -- -- 80
2020-03-19 22:00:00 11 9 Sudeste 15 Sudeste 0 -- -- 77
2020-03-19 21:00:00 12 10 Sudeste 16 Sudeste 0 -- -- 70
2020-03-19 20:00:00 13.6 11 Sudeste 21 Sudeste 0 -- -- 62
2020-03-19 19:00:00 14.9 16 Sudeste 28 Sudeste 0 -- -- 55
2020-03-19 18:00:00 16.4 15 Sudeste 27 Sudeste 0 -- -- 50
2020-03-19 17:00:00 17.4 12 Sudeste 24 Este 0 -- -- 44
2020-03-19 16:00:00 16.9 9 Sur 24 Sudeste 0 -- -- 59
2020-03-19 15:00:00 16.9 12 Sudeste 22 Sur 0 -- -- 60
2020-03-19 14:00:00 17.6 8 Sur 18 Sur 0 -- -- 59
2020-03-19 13:00:00 16.8 5 Sur 10 Sudoeste 0 -- -- 65
2020-03-19 12:00:00 13.5 5 Noroeste 9 Noroeste 0 -- -- 86
2020-03-19 11:00:00 10.3 4 Oeste 8 Noroeste 0 -- -- 98
2020-03-19 10:00:00 8.7 4 Oeste 7 Noroeste 0 -- -- 98
2020-03-19 09:00:00 7.8 0 Calma 4 Nordeste 0 -- -- 98
2020-03-19 08:00:00 7.3 0 Calma 3 Sudoeste 0.2 -- -- 97
2020-03-19 07:00:00 7.1 0 Calma 4 Sur 0 -- -- 97
2020-03-19 06:00:00 7 0 Calma 2 Oeste 0 -- -- 97
2020-03-19 05:00:00 7.3 0 Calma 4 Sudoeste 0 -- -- 96
2020-03-19 04:00:00 8.1 0 Calma 3 Sur 0 -- -- 95
2020-03-19 03:00:00 9 0 Calma 4 Noroeste 0 -- -- 94
2020-03-19 02:00:00 9.7 0 Calma 3 Noroeste 0 -- -- 92
2020-03-19 01:00:00 10.2 0 Calma 3 Oeste 0 -- -- 89
2020-03-19 00:00:00 11.2 3 Sur 8 Sudeste 0 -- -- 84
2020-03-18 23:00:00 12.1 3 Este 9 Este 0 -- -- 76
2020-03-18 22:00:00 12.9 0 Calma 5 Sur 0 -- -- 84
2020-03-18 21:00:00 13.6 2 Oeste 6 Nordeste 0 -- -- 83
2020-03-18 20:00:00 14.4 6 Nordeste 8 Nordeste 0 -- -- 79
2020-03-18 19:00:00 15.5 4 Nordeste 7 Noroeste 0 -- -- 73
2020-03-18 18:00:00 16.4 5 Noroeste 9 Noroeste 0 -- -- 65
2020-03-18 17:00:00 17.1 3 Sudoeste 8 Sudoeste 0 -- -- 63
2020-03-18 16:00:00 17.5 4 Oeste 10 Noroeste 0 -- -- 61
2020-03-18 15:00:00 16.8 4 Noroeste 10 Noroeste 0 -- -- 67
2020-03-18 14:00:00 15.7 3 Sudoeste 6 Sudoeste 0 -- -- 74
2020-03-18 13:00:00 14.8 2 Oeste 8 Oeste 0 -- -- 80
2020-03-18 12:00:00 12.9 3 Oeste 7 Sur 0 -- -- 85
2020-03-18 11:00:00 11.8 2 Sur 6 Sur 0 -- -- 91
2020-03-18 10:00:00 10 0 Calma 3 Sudoeste 0 -- -- 97
2020-03-18 09:00:00 9.1 0 Calma 5 Noroeste 0 -- -- 97
2020-03-18 08:00:00 8.5 2 Noroeste 3 Oeste 0 -- -- 96
2020-03-18 07:00:00 8.8 0 Calma 4 Noroeste 0 -- -- 96
2020-03-18 06:00:00 8.9 3 Noroeste 6 Noroeste 0 -- -- 95
2020-03-18 05:00:00 9.6 0 Calma 3 Noroeste 0 -- -- 93
2020-03-18 04:00:00 10.1 2 Oeste 4 Oeste 0 -- -- 92
2020-03-18 03:00:00 10.8 0 Calma 5 Norte 0 -- -- 91
2020-03-18 02:00:00 11.1 0 Calma 4 Oeste 0 -- -- 90
2020-03-18 01:00:00 11.3 4 Sudoeste 6 Sur 0 -- -- 88
2020-03-18 00:00:00 12.5 0 Calma 4 Nordeste 0 -- -- 83
2020-03-17 23:00:00 12.9 3 Noroeste 6 Noroeste 0 -- -- 81
2020-03-17 22:00:00 13.8 0 Calma 11 Este 0 -- -- 78
2020-03-17 21:00:00 14.6 4 Este 16 Este 0 -- -- 73
2020-03-17 20:00:00 15.3 11 Este 19 Nordeste 0 -- -- 72
2020-03-17 19:00:00 16.1 14 Nordeste 21 Nordeste 0 -- -- 69
2020-03-17 18:00:00 17 13 Nordeste 24 Nordeste 0 -- -- 66
2020-03-17 17:00:00 17.3 15 Este 29 Nordeste 0 -- -- 64
2020-03-17 16:00:00 17.5 15 Nordeste 27 Nordeste 0 -- -- 66
2020-03-17 15:00:00 16.5 15 Nordeste 29 Nordeste 0 -- -- 70
2020-03-17 14:00:00 15.4 9 Este 19 Este 0 -- -- 74
2020-03-17 13:00:00 15 11 Nordeste 29 Nordeste 0 -- -- 79
2020-03-17 12:00:00 13.8 21 Nordeste 35 Este 0 -- -- 82
2020-03-17 11:00:00 12.2 30 Nordeste 36 Nordeste 0.8 -- -- 87
2020-03-17 10:00:00 12 22 Nordeste 35 Nordeste 0.8 -- -- 87
2020-03-17 09:00:00 12 24 Nordeste 33 Nordeste 0.4 -- -- 83
2020-03-17 08:00:00 12.4 27 Nordeste 41 Nordeste 0 -- -- 77
2020-03-17 07:00:00 12.6 25 Nordeste 40 Nordeste 0 -- -- 73
2020-03-17 06:00:00 12.6 33 Nordeste 43 Nordeste 0 -- -- 71
2020-03-17 05:00:00 12.4 20 Nordeste 37 Nordeste 0 -- -- 74
2020-03-17 04:00:00 12.7 21 Este 40 Nordeste 0 -- -- 76
2020-03-17 03:00:00 12.7 21 Nordeste 51 Nordeste 0 -- -- 80
2020-03-17 02:00:00 12.9 32 Nordeste 54 Nordeste 0 -- -- 79
2020-03-17 01:00:00 12.8 36 Nordeste 49 Nordeste 0 -- -- 79
2020-03-17 00:00:00 12.7 33 Nordeste 48 Nordeste 0 -- -- 81
2020-03-16 23:00:00 12.6 37 Nordeste 53 Nordeste 0 -- -- 80
2020-03-16 22:00:00 12.5 33 Nordeste 50 Nordeste 0 -- -- 80
2020-03-16 21:00:00 12.1 26 Este 51 Este 0 -- -- 82
2020-03-16 20:00:00 12.2 37 Nordeste 54 Nordeste 0 -- -- 84
2020-03-16 19:00:00 12.6 45 Nordeste 62 Nordeste 0 -- -- 82
2020-03-16 18:00:00 12.7 36 Nordeste 61 Nordeste 0.2 -- -- 85
2020-03-16 17:00:00 12.5 46 Nordeste 63 Nordeste 0.2 -- -- 83
2020-03-16 16:00:00 11.7 46 Nordeste 64 Nordeste 0.6 -- -- 88
2020-03-16 15:00:00 12.9 37 Nordeste 52 Nordeste 0 -- -- 80
2020-03-16 14:00:00 12.6 36 Nordeste 50 Nordeste 0 -- -- 80
2020-03-16 13:00:00 11.5 35 Nordeste 59 Nordeste 0 -- -- 84
2020-03-16 12:00:00 10.8 36 Nordeste 49 Nordeste 0.6 -- -- 88
2020-03-16 11:00:00 11.1 28 Nordeste 41 Este 0.2 -- -- 88
2020-03-16 10:00:00 11.1 24 Nordeste 36 Nordeste 0.2 -- -- 89
2020-03-16 09:00:00 11.2 28 Nordeste 39 Nordeste 1 -- -- 92
2020-03-16 08:00:00 11.3 21 Nordeste 36 Nordeste 0.6 -- -- 93
2020-03-16 07:00:00 11.2 16 Nordeste 26 Nordeste 1.6 -- -- 93
2020-03-16 06:00:00 11.2 14 Nordeste 23 Nordeste 1.2 -- -- 93
2020-03-16 05:00:00 11.3 18 Nordeste 24 Nordeste 1.2 -- -- 91
2020-03-16 04:00:00 12.2 5 Este 16 Este 0.4 -- -- 86
2020-03-16 03:00:00 12.3 6 Este 17 Sudeste 0.2 -- -- 87
2020-03-16 02:00:00 12.4 11 Sudeste 39 Este 0.6 -- -- 88
2020-03-16 01:00:00 12.6 18 Sudeste 36 Este 0.4 -- -- 87
2020-03-16 00:00:00 12.6 20 Sudeste 39 Sudeste 0.6 -- -- 88
2020-03-15 23:00:00 13.6 20 Sudeste 40 Sudeste 0.2 -- -- 77
2020-03-15 22:00:00 14 17 Sudeste 41 Sudeste 0 -- -- 73
2020-03-15 21:00:00 13.8 16 Este 36 Este 0.2 -- -- 72
2020-03-15 20:00:00 13.9 21 Sudeste 43 Este 0 -- -- 71
2020-03-15 19:00:00 14.8 18 Sudeste 40 Sudeste 0 -- -- 68
2020-03-15 18:00:00 15.4 19 Sudeste 40 Sudeste 0 -- -- 66
2020-03-15 17:00:00 16.4 21 Sudeste 46 Este 0 -- -- 65
2020-03-15 16:00:00 18.3 22 Sudeste 41 Sudeste 0 -- -- 59
2020-03-15 15:00:00 18.7 21 Sudeste 39 Sudeste 0 -- -- 58
2020-03-15 14:00:00 18.2 20 Sudeste 39 Sudeste 0 -- -- 57
2020-03-15 13:00:00 18.3 15 Sudeste 31 Este 0 -- -- 55
2020-03-15 12:00:00 17.5 11 Este 23 Este 0 -- -- 60
2020-03-15 11:00:00 14.5 7 Este 19 Nordeste 0 -- -- 68
2020-03-15 10:00:00 9.8 2 Sudoeste 6 Oeste 0 -- -- 81
2020-03-15 09:00:00 7 4 Sudoeste 8 Sudoeste 0 -- -- 88
2020-03-15 08:00:00 5.4 0 Calma 6 Sudoeste 0 -- -- 91
2020-03-15 07:00:00 5.6 2 Sudoeste 9 Nordeste 0 -- -- 90
2020-03-15 06:00:00 6.2 2 Nordeste 7 Nordeste 0 -- -- 92
2020-03-15 05:00:00 5.7 0 Calma 6 Noroeste 0 -- -- 90
2020-03-15 04:00:00 6.6 0 Calma 2 Oeste 0 -- -- 86
2020-03-15 03:00:00 6.9 0 Calma 5 Sur 0 -- -- 83
2020-03-15 02:00:00 7.6 3 Sur 4 Sudoeste 0 -- -- 82
2020-03-15 01:00:00 9.2 3 Sur 4 Sur 0 -- -- 77
2020-03-15 00:00:00 10 2 Oeste 8 Este 0 -- -- 74
2020-03-14 23:00:00 11.9 3 Este 10 Este 0 -- -- 67
2020-03-14 22:00:00 13.1 4 Este 10 Sudeste 0 -- -- 62
2020-03-14 21:00:00 14.3 5 Este 15 Nordeste 0 -- -- 61
2020-03-14 20:00:00 15.5 11 Nordeste 17 Nordeste 0 -- -- 57
2020-03-14 19:00:00 17 13 Nordeste 15 Este 0 -- -- 53
2020-03-14 18:00:00 19.1 3 Oeste 9 Oeste 0 -- -- 47
2020-03-14 17:00:00 19.1 4 Sudoeste 13 Oeste 0 -- -- 46
2020-03-14 16:00:00 19 5 Sudeste 15 Nordeste 0 -- -- 46
2020-03-14 15:00:00 18.3 5 Noroeste 15 Oeste 0 -- -- 44
2020-03-14 14:00:00 17.2 8 Sudoeste 17 Sudoeste 0 -- -- 45
2020-03-14 13:00:00 16.2 6 Oeste 20 Oeste 0 -- -- 50
2020-03-14 12:00:00 14.5 7 Oeste 19 Sur 0 -- -- 56
2020-03-14 11:00:00 12.8 9 Sur 19 Oeste 0 -- -- 62
2020-03-14 10:00:00 10.6 8 Oeste 15 Sudoeste 0 -- -- 70
2020-03-14 09:00:00 8.6 4 Sudoeste 18 Sudoeste 0 -- -- 78
2020-03-14 08:00:00 7.5 10 Sudoeste 18 Sudoeste 0 -- -- 79
2020-03-14 07:00:00 7.5 5 Sudoeste 14 Sudoeste 0 -- -- 80
2020-03-14 06:00:00 8.4 8 Sudoeste 19 Sudoeste 0 -- -- 78
2020-03-14 05:00:00 9.1 7 Sudoeste 12 Sudoeste 0 -- -- 77
2020-03-14 04:00:00 9.9 3 Sudoeste 12 Sudoeste 0 -- -- 77
2020-03-14 03:00:00 10.3 5 Sur 10 Sur 0 -- -- 80
2020-03-14 02:00:00 11 4 Oeste 16 Sudoeste 0 -- -- 80
2020-03-14 01:00:00 11.4 3 Sudoeste 10 Noroeste 0 -- -- 79
2020-03-14 00:00:00 12.3 7 Noroeste 11 Noroeste 0 -- -- 77
2020-03-13 23:00:00 12.6 6 Noroeste 10 Noroeste 0 -- -- 82
2020-03-13 22:00:00 14 3 Norte 4 Norte 0 -- -- 76
2020-03-13 21:00:00 14.9 2 Oeste 7 Sudeste 0 -- -- 72
2020-03-13 20:00:00 15.7 4 Noroeste 8 Norte 0 -- -- 69
2020-03-13 19:00:00 16.6 4 Noroeste 14 Noroeste 0 -- -- 66
2020-03-13 18:00:00 18.1 7 Norte 18 Norte 0 -- -- 60
2020-03-13 17:00:00 19.6 8 Oeste 17 Oeste 0 -- -- 52
2020-03-13 16:00:00 19.1 4 Noroeste 13 Oeste 0 -- -- 54
2020-03-13 15:00:00 18.7 3 Sudeste 13 Sur 0 -- -- 54
2020-03-13 14:00:00 18.4 7 Sudoeste 16 Sur 0 -- -- 54
2020-03-13 13:00:00 17.4 5 Sudeste 14 Oeste 0 -- -- 57
2020-03-13 12:00:00 16 5 Noroeste 10 Sur 0 -- -- 64
2020-03-13 11:00:00 14.5 4 Oeste 13 Sur 0 -- -- 71
2020-03-13 10:00:00 13.1 4 Sudeste 8 Oeste 0 -- -- 75
2020-03-13 09:00:00 12 5 Sudoeste 11 Sudoeste 0 -- -- 79
2020-03-13 08:00:00 11.3 4 Sur 9 Sur 0 -- -- 82
2020-03-13 07:00:00 11 5 Sur 12 Sur 0 -- -- 83
2020-03-13 06:00:00 11.1 5 Sur 12 Sudoeste 0 -- -- 83
2020-03-13 05:00:00 11.6 6 Sudoeste 12 Sudoeste 0 -- -- 82
2020-03-13 04:00:00 12 4 Sur 18 Sudoeste 0 -- -- 81
2020-03-13 03:00:00 12.8 9 Sudoeste 15 Sudoeste 0 -- -- 78
2020-03-13 02:00:00 14.1 8 Sudoeste 15 Sudoeste 0 -- -- 75
2020-03-13 01:00:00 15.7 6 Sur 16 Sudoeste 0 -- -- 73
2020-03-13 00:00:00 16.8 7 Sur 25 Sudeste 0 -- -- 65
2020-03-12 23:00:00 17.9 16 Este 30 Este 0 -- -- 55
2020-03-12 22:00:00 18.2 6 Sudeste 20 Sudeste 0 -- -- 55
2020-03-12 21:00:00 18.6 13 Sudeste 23 Sudeste 0 -- -- 53
2020-03-12 20:00:00 19.6 18 Sudeste 35 Sudeste 0 -- -- 50
2020-03-12 19:00:00 21.1 11 Sudeste 25 Sur 0 -- -- 48
2020-03-12 18:00:00 24.9 5 Este 9 Nordeste 0 -- -- 43
2020-03-12 17:00:00 26.7 5 Nordeste 12 Nordeste 0 -- -- 38
2020-03-12 16:00:00 26.4 3 Este 9 Este 0 -- -- 37
2020-03-12 15:00:00 25.4 5 Nordeste 10 Nordeste 0 -- -- 38
2020-03-12 14:00:00 23.2 4 Sudoeste 9 Norte 0 -- -- 47
2020-03-12 13:00:00 20.3 3 Noroeste 8 Sudoeste 0 -- -- 55
2020-03-12 12:00:00 17.4 3 Oeste 9 Oeste 0 -- -- 63
2020-03-12 11:00:00 14.5 4 Oeste 10 Oeste 0 -- -- 72
2020-03-12 10:00:00 11.5 4 Sudoeste 8 Oeste 0 -- -- 83
2020-03-12 09:00:00 9.1 2 Norte 4 Norte 0 -- -- 91
2020-03-12 08:00:00 7.9 4 Sudoeste 5 Sur 0 -- -- 92
2020-03-12 07:00:00 8 3 Noroeste 5 Noroeste 0 -- -- 92
2020-03-12 06:00:00 8.5 0 Calma 4 Oeste 0 -- -- 91
2020-03-12 05:00:00 9.3 0 Calma 4 Noroeste 0 -- -- 88
2020-03-12 04:00:00 9.9 0 Calma 4 Noroeste 0 -- -- 87
2020-03-12 03:00:00 10.3 4 Noroeste 6 Noroeste 0 -- -- 86
2020-03-12 02:00:00 11.8 2 Sudoeste 4 Sudoeste 0 -- -- 81
2020-03-12 01:00:00 11.9 0 Calma 6 Noroeste 0 -- -- 79
2020-03-12 00:00:00 13.7 3 Noroeste 5 Oeste 0 -- -- 71
2020-03-11 23:00:00 15.7 0 Calma 10 Este 0 -- -- 64
2020-03-11 22:00:00 16.9 3 Nordeste 10 Este 0 -- -- 60
2020-03-11 21:00:00 18 3 Oeste 8 Sur 0 -- -- 57
2020-03-11 20:00:00 19.6 4 Sudeste 17 Este 0 -- -- 53
2020-03-11 19:00:00 21.1 10 Nordeste 15 Nordeste 0 -- -- 46
2020-03-11 18:00:00 23.3 11 Nordeste 18 Nordeste 0 -- -- 42
2020-03-11 17:00:00 25.1 6 Nordeste 13 Nordeste 0 -- -- 39
2020-03-11 16:00:00 24.3 6 Este 11 Este 0 -- -- 38
2020-03-11 15:00:00 23.6 6 Este 11 Nordeste 0 -- -- 40
2020-03-11 14:00:00 21.8 4 Este 11 Este 0 -- -- 42
2020-03-11 13:00:00 19.6 3 Sur 9 Sudeste 0 -- -- 44
2020-03-11 12:00:00 17.4 3 Sur 8 Oeste 0 -- -- 48
2020-03-11 11:00:00 14 3 Noroeste 8 Oeste 0 -- -- 58
2020-03-11 10:00:00 10.5 4 Sur 8 Sur 0 -- -- 74
2020-03-11 09:00:00 6.9 0 Calma 5 Oeste 0 -- -- 87
2020-03-11 08:00:00 5.4 3 Norte 4 Noroeste 0 -- -- 89
2020-03-11 07:00:00 5.5 2 Norte 6 Sudoeste 0 -- -- 87
2020-03-11 06:00:00 7.1 0 Calma 5 Sur 0 -- -- 80
2020-03-11 05:00:00 8.4 2 Sur 7 Sudoeste 0 -- -- 76
2020-03-11 04:00:00 7.1 0 Calma 4 Sudoeste 0 -- -- 86
2020-03-11 03:00:00 8.5 3 Sur 5 Sur 0 -- -- 82
2020-03-11 02:00:00 9.4 0 Calma 8 Sur 0 -- -- 79
2020-03-11 01:00:00 10.2 0 Calma 2 Noroeste 0 -- -- 76
2020-03-11 00:00:00 11.8 0 Calma 9 Este 0 -- -- 68
2020-03-10 23:00:00 13.1 4 Sudeste 5 Sudeste 0 -- -- 65
2020-03-10 22:00:00 13.9 0 Calma 10 Este 0 -- -- 62
2020-03-10 21:00:00 14.8 6 Este 15 Nordeste 0 -- -- 58
2020-03-10 20:00:00 16.5 2 Nordeste 6 Este 0 -- -- 50
2020-03-10 19:00:00 17.5 8 Este 15 Nordeste 0 -- -- 48
2020-03-10 18:00:00 20 8 Nordeste 14 Nordeste 0 -- -- 41
2020-03-10 17:00:00 21.3 9 Nordeste 13 Nordeste 0 -- -- 38
2020-03-10 16:00:00 20.5 0 Calma 10 Noroeste 0 -- -- 39
2020-03-10 15:00:00 18.7 4 Oeste 10 Oeste 0 -- -- 41
2020-03-10 14:00:00 17.3 4 Oeste 13 Oeste 0 -- -- 47
2020-03-10 13:00:00 16.3 5 Oeste 12 Oeste 0 -- -- 51
2020-03-10 12:00:00 14.6 6 Noroeste 18 Oeste 0 -- -- 55
2020-03-10 11:00:00 13.2 6 Oeste 15 Oeste 0 -- -- 59
2020-03-10 10:00:00 10 6 Noroeste 12 Oeste 0 -- -- 71
2020-03-10 09:00:00 8.6 4 Oeste 19 Oeste 0 -- -- 73
2020-03-10 08:00:00 8.3 11 Sudoeste 19 Oeste 0 -- -- 72
2020-03-10 07:00:00 8.4 11 Sudoeste 16 Sudoeste 0 -- -- 71
2020-03-10 06:00:00 8.2 3 Sur 14 Sudoeste 0 -- -- 71
2020-03-10 05:00:00 8.4 5 Sudoeste 17 Sudoeste 0 -- -- 70
2020-03-10 04:00:00 8.4 2 Sur 21 Sudoeste 0 -- -- 71
2020-03-10 03:00:00 8.4 6 Sur 17 Sur 0 -- -- 72
2020-03-10 02:00:00 8.9 8 Sur 20 Oeste 0 -- -- 64
2020-03-10 01:00:00 9.9 12 Oeste 22 Sudoeste 0 -- -- 57
2020-03-10 00:00:00 10 9 Sudoeste 26 Oeste 0 -- -- 58
2020-03-09 23:00:00 10.4 19 Noroeste 42 Noroeste 0 -- -- 56
2020-03-09 22:00:00 10.8 30 Noroeste 60 Oeste 0 -- -- 52
2020-03-09 21:00:00 11.4 33 Noroeste 59 Oeste 0 -- -- 55
2020-03-09 20:00:00 12.3 37 Oeste 60 Oeste 0 -- -- 54
2020-03-09 19:00:00 13.4 36 Oeste 66 Oeste 0 -- -- 49
2020-03-09 18:00:00 15.1 43 Oeste 71 Oeste 0 -- -- 43
2020-03-09 17:00:00 15.8 43 Oeste 75 Oeste 0 -- -- 42
2020-03-09 16:00:00 16.2 55 Noroeste 85 Noroeste 0 -- -- 37
2020-03-09 15:00:00 16 45 Oeste 80 Oeste 0 -- -- 42
2020-03-09 14:00:00 15.7 49 Oeste 79 Oeste 0 -- -- 44
2020-03-09 13:00:00 15.3 46 Oeste 73 Oeste 0 -- -- 45
2020-03-09 12:00:00 14.2 40 Oeste 66 Oeste 0 -- -- 49
2020-03-09 11:00:00 13.4 39 Oeste 67 Oeste 0 -- -- 50
2020-03-09 10:00:00 12.7 30 Oeste 52 Oeste 0 -- -- 51
2020-03-09 09:00:00 11.6 21 Noroeste 64 Oeste 0 -- -- 53
2020-03-09 08:00:00 11.3 42 Oeste 66 Oeste 0 -- -- 55
2020-03-09 07:00:00 11.2 34 Oeste 71 Oeste 0 -- -- 56
2020-03-09 06:00:00 11.6 40 Oeste 63 Oeste 0 -- -- 56
2020-03-09 05:00:00 12.3 34 Noroeste 55 Noroeste 0 -- -- 55
2020-03-09 04:00:00 10.7 15 Oeste 35 Oeste 0 -- -- 67
2020-03-09 03:00:00 12.3 29 Oeste 42 Sudoeste 0 -- -- 60
2020-03-09 02:00:00 12.2 19 Oeste 31 Oeste 0 -- -- 62
2020-03-09 01:00:00 12.4 8 Sudoeste 22 Sudoeste 0 -- -- 60
2020-03-09 00:00:00 12.4 9 Sudoeste 17 Sur 0 -- -- 57
2020-03-08 23:00:00 13.1 6 Sur 13 Sudoeste 0 -- -- 51
2020-03-08 22:00:00 14.4 5 Sur 12 Oeste 0 -- -- 45
2020-03-08 21:00:00 15.5 6 Noroeste 25 Noroeste 0 -- -- 43
2020-03-08 20:00:00 16.6 14 Noroeste 21 Noroeste 0 -- -- 39
2020-03-08 19:00:00 17.4 6 Sudoeste 22 Oeste 0 -- -- 39
2020-03-08 18:00:00 18.3 16 Oeste 31 Oeste 0 -- -- 37
2020-03-08 17:00:00 18.7 13 Oeste 37 Oeste 0 -- -- 36
2020-03-08 16:00:00 20.1 15 Oeste 29 Oeste 0 -- -- 39
2020-03-08 15:00:00 19.6 16 Oeste 28 Oeste 0 -- -- 42
2020-03-08 14:00:00 18.3 7 Norte 26 Oeste 0 -- -- 46
2020-03-08 13:00:00 16.2 9 Noroeste 22 Noroeste 0 -- -- 53
2020-03-08 12:00:00 15.5 4 Norte 11 Noroeste 0 -- -- 54
2020-03-08 11:00:00 12.4 3 Norte 8 Sur 0 -- -- 63
2020-03-08 10:00:00 9.5 3 Oeste 10 Noroeste 0 -- -- 71
2020-03-08 09:00:00 7.1 3 Noroeste 7 Oeste 0 -- -- 78
2020-03-08 08:00:00 5.7 5 Oeste 9 Oeste 0 -- -- 82
2020-03-08 07:00:00 6.3 4 Sudoeste 16 Oeste 0 -- -- 79
2020-03-08 06:00:00 7.3 5 Oeste 18 Sudoeste 0 -- -- 77
2020-03-08 05:00:00 8.1 8 Sudoeste 17 Sudoeste 0 -- -- 75
2020-03-08 04:00:00 8.5 8 Sudoeste 18 Sudoeste 0 -- -- 75
2020-03-08 03:00:00 9.2 6 Sudoeste 21 Oeste 0 -- -- 73
2020-03-08 02:00:00 9.8 10 Sudoeste 26 Oeste 0 -- -- 72
2020-03-08 01:00:00 10.8 12 Oeste 28 Oeste 0 -- -- 67
2020-03-08 00:00:00 11.1 8 Sudoeste 21 Sudoeste 0 -- -- 67
2020-03-07 23:00:00 12 12 Sudoeste 34 Oeste 0 -- -- 61
2020-03-07 22:00:00 12.4 14 Oeste 43 Oeste 0 -- -- 59
2020-03-07 21:00:00 12.8 31 Noroeste 55 Noroeste 0 -- -- 59
2020-03-07 20:00:00 14 35 Noroeste 60 Noroeste 0 -- -- 54
2020-03-07 19:00:00 14.9 28 Noroeste 51 Noroeste 0 -- -- 48
2020-03-07 18:00:00 16 35 Noroeste 58 Noroeste 0 -- -- 45
2020-03-07 17:00:00 17.1 41 Noroeste 66 Noroeste 0 -- -- 42
2020-03-07 16:00:00 18 33 Noroeste 55 Noroeste 0 -- -- 39
2020-03-07 15:00:00 17.6 32 Noroeste 51 Noroeste 0 -- -- 41
2020-03-07 14:00:00 16.8 32 Noroeste 50 Oeste 0 -- -- 45
2020-03-07 13:00:00 15.7 25 Noroeste 46 Oeste 0 -- -- 46
2020-03-07 12:00:00 14.2 27 Oeste 49 Noroeste 0 -- -- 48
2020-03-07 11:00:00 12.4 19 Noroeste 44 Noroeste 0 -- -- 53
2020-03-07 10:00:00 10.2 23 Oeste 32 Oeste 0 -- -- 63
2020-03-07 09:00:00 7.8 11 Oeste 21 Oeste 0 -- -- 70
2020-03-07 08:00:00 6.2 13 Oeste 33 Oeste 0 -- -- 74
2020-03-07 07:00:00 6.2 19 Oeste 30 Oeste 0 -- -- 72
2020-03-07 06:00:00 6.3 18 Oeste 35 Noroeste 0 -- -- 71
2020-03-07 05:00:00 6.6 21 Noroeste 35 Noroeste 0 -- -- 69
2020-03-07 04:00:00 6.2 23 Noroeste 35 Oeste 0 -- -- 71
2020-03-07 03:00:00 6.1 23 Noroeste 40 Noroeste 0 -- -- 72
2020-03-07 02:00:00 6.5 25 Noroeste 48 Noroeste 0 -- -- 71
2020-03-07 01:00:00 6.6 30 Noroeste 51 Noroeste 0 -- -- 71
2020-03-07 00:00:00 6.8 33 Noroeste 57 Noroeste 0 -- -- 69
2020-03-06 23:00:00 6.9 28 Noroeste 48 Noroeste 0 -- -- 67
2020-03-06 22:00:00 6.9 29 Noroeste 51 Noroeste 0 -- -- 69
2020-03-06 21:00:00 7.3 37 Oeste 68 Oeste 0 -- -- 65
2020-03-06 20:00:00 7.5 38 Oeste 68 Noroeste 0 -- -- 63
2020-03-06 19:00:00 8.2 36 Oeste 79 Oeste 0 -- -- 59
2020-03-06 18:00:00 9.3 48 Oeste 78 Noroeste 0 -- -- 58
2020-03-06 17:00:00 9.6 55 Noroeste 88 Oeste 0 -- -- 56
2020-03-06 16:00:00 11.8 62 Oeste 97 Noroeste 0 -- -- 43
2020-03-06 15:00:00 11.6 57 Oeste 82 Noroeste 0 -- -- 43
2020-03-06 14:00:00 11.3 55 Oeste 84 Noroeste 0 -- -- 48
2020-03-06 13:00:00 12.4 43 Oeste 75 Oeste 0 -- -- 47
2020-03-06 12:00:00 11.9 40 Oeste 64 Oeste 0 -- -- 49
2020-03-06 11:00:00 10.9 35 Oeste 55 Oeste 0 -- -- 54
2020-03-06 10:00:00 10.9 34 Noroeste 53 Oeste 0 -- -- 59
2020-03-06 09:00:00 9.7 17 Oeste 29 Noroeste 0 -- -- 63
2020-03-06 08:00:00 7.8 5 Sudoeste 15 Noroeste 0 -- -- 67
2020-03-06 07:00:00 7.5 7 Noroeste 23 Oeste 0 -- -- 69
2020-03-06 06:00:00 7.3 14 Noroeste 25 Noroeste 0 -- -- 69
2020-03-06 05:00:00 7.1 5 Noroeste 27 Oeste 0 -- -- 71
2020-03-06 04:00:00 7.8 23 Oeste 38 Oeste 0 -- -- 67
2020-03-06 03:00:00 8 22 Oeste 42 Sudoeste 0 -- -- 65
2020-03-06 02:00:00 8.6 20 Oeste 33 Oeste 0 -- -- 62
2020-03-06 01:00:00 9.3 22 Oeste 42 Noroeste 0 -- -- 58
2020-03-06 00:00:00 10 28 Oeste 51 Oeste 0 -- -- 53
2020-03-05 23:00:00 10.4 25 Oeste 59 Oeste 0 -- -- 53
2020-03-05 22:00:00 11.3 35 Oeste 60 Oeste 0 -- -- 55
2020-03-05 21:00:00 12.2 30 Noroeste 59 Noroeste 0 -- -- 55
2020-03-05 20:00:00 13 36 Noroeste 59 Noroeste 0 -- -- 56
2020-03-05 19:00:00 14.1 39 Oeste 63 Noroeste 0 -- -- 54
2020-03-05 18:00:00 15.9 41 Noroeste 70 Oeste 0 -- -- 49
2020-03-05 17:00:00 16.2 30 Noroeste 72 Noroeste 0 -- -- 49
2020-03-05 16:00:00 18.3 32 Oeste 68 Oeste 0 -- -- 51
2020-03-05 15:00:00 16.4 49 Oeste 75 Oeste 0.6 -- -- 53
2020-03-05 14:00:00 20.8 16 Sudoeste 39 Sudoeste 0 -- -- 49
2020-03-05 13:00:00 19.2 14 Oeste 36 Oeste 0 -- -- 53
2020-03-05 12:00:00 16.8 4 Sudoeste 15 Sudoeste 0 -- -- 61
2020-03-05 11:00:00 14.8 7 Norte 12 Norte 0 -- -- 64
2020-03-05 10:00:00 12.6 2 Sudoeste 6 Sur 0 -- -- 75
2020-03-05 09:00:00 12.2 0 Calma 6 Norte 0 -- -- 72
2020-03-05 08:00:00 12.2 3 Oeste 6 Noroeste 0 -- -- 69
2020-03-05 07:00:00 12.4 3 Noroeste 17 Oeste 0 -- -- 67
2020-03-05 06:00:00 12.6 3 Nordeste 8 Sudoeste 0 -- -- 67
2020-03-05 05:00:00 12.5 0 Calma 5 Sur 0 -- -- 68
2020-03-05 04:00:00 13.2 2 Nordeste 13 Sudoeste 0 -- -- 66
2020-03-05 03:00:00 14.1 2 Nordeste 18 Sudoeste 0 -- -- 63
2020-03-05 02:00:00 15.4 5 Sur 23 Sudoeste 0 -- -- 59
2020-03-05 01:00:00 15.4 5 Sudoeste 15 Sudoeste 0 -- -- 60
2020-03-05 00:00:00 15.7 10 Sudoeste 27 Sudoeste 0 -- -- 59
2020-03-04 23:00:00 15.7 5 Norte 11 Nordeste 0 -- -- 62
2020-03-04 22:00:00 16.2 6 Sudoeste 19 Oeste 0 -- -- 63
2020-03-04 21:00:00 16.9 8 Sudoeste 13 Sudoeste 0 -- -- 64
2020-03-04 20:00:00 17.9 6 Oeste 22 Oeste 0 -- -- 61
2020-03-04 19:00:00 18.8 16 Oeste 36 Oeste 0 -- -- 58
2020-03-04 18:00:00 20.7 23 Oeste 35 Oeste 0 -- -- 51
2020-03-04 17:00:00 20.9 24 Oeste 49 Oeste 0 -- -- 50
2020-03-04 16:00:00 21.2 32 Oeste 54 Oeste 0 -- -- 49
2020-03-04 15:00:00 21.7 26 Oeste 59 Oeste 0 -- -- 48
2020-03-04 14:00:00 20.5 44 Oeste 62 Oeste 0 -- -- 51
2020-03-04 13:00:00 19.3 32 Oeste 48 Oeste 0 -- -- 55
2020-03-04 12:00:00 17.2 22 Oeste 36 Oeste 0 -- -- 58
2020-03-04 11:00:00 14.8 12 Oeste 27 Oeste 0 -- -- 62
2020-03-04 10:00:00 13.6 11 Sudoeste 23 Oeste 0 -- -- 65
2020-03-04 09:00:00 11.4 4 Sur 22 Oeste 0 -- -- 71
2020-03-04 08:00:00 11.4 12 Oeste 28 Noroeste 0 -- -- 68
2020-03-04 07:00:00 10.1 14 Oeste 34 Oeste 0 -- -- 73
2020-03-04 06:00:00 10.2 8 Oeste 30 Oeste 0 -- -- 70
2020-03-04 05:00:00 10.4 17 Oeste 42 Oeste 0 -- -- 67
2020-03-04 04:00:00 10.7 19 Oeste 36 Oeste 0 -- -- 65
2020-03-04 03:00:00 11.1 26 Oeste 44 Oeste 0 -- -- 63
2020-03-04 02:00:00 12.2 28 Oeste 46 Oeste 0 -- -- 57
2020-03-04 01:00:00 12.2 28 Oeste 55 Oeste 0 -- -- 56
2020-03-04 00:00:00 12.6 40 Oeste 68 Oeste 0 -- -- 53
2020-03-03 23:00:00 12.5 29 Oeste 59 Oeste 0 -- -- 55
2020-03-03 22:00:00 13.4 35 Oeste 75 Noroeste 0 -- -- 50
2020-03-03 21:00:00 13.8 43 Noroeste 78 Noroeste 0 -- -- 51
2020-03-03 20:00:00 14.7 49 Oeste 81 Oeste 0 -- -- 51
2020-03-03 19:00:00 15.5 50 Oeste 73 Oeste 0 -- -- 50
2020-03-03 18:00:00 15 27 Oeste 45 Oeste 0 -- -- 63
2020-03-03 17:00:00 12.7 22 Noroeste 34 Oeste 0 -- -- 71
2020-03-03 16:00:00 11.9 14 Noroeste 21 Noroeste 0.2 -- -- 73
2020-03-03 15:00:00 13.6 5 Noroeste 15 Oeste 0 -- -- 67
2020-03-03 14:00:00 11.8 3 Nordeste 15 Oeste 0 -- -- 70
2020-03-03 13:00:00 9.8 3 Noroeste 10 Noroeste 0 -- -- 81
2020-03-03 12:00:00 8.9 6 Noroeste 19 Oeste 0.6 -- -- 84
2020-03-03 11:00:00 8.5 14 Oeste 21 Oeste 0 -- -- 78
2020-03-03 10:00:00 8.1 6 Oeste 18 Sudoeste 0 -- -- 69
2020-03-03 09:00:00 6.5 5 Noroeste 14 Norte 0 -- -- 66
2020-03-03 08:00:00 5.7 6 Sudoeste 16 Sudoeste 0 -- -- 66
2020-03-03 07:00:00 7.2 12 Oeste 29 Oeste 0 -- -- 60
2020-03-03 06:00:00 6.3 17 Oeste 25 Oeste 0 -- -- 62
2020-03-03 05:00:00 6.1 19 Oeste 44 Oeste 0 -- -- 65
2020-03-03 04:00:00 6.5 26 Oeste 41 Oeste 0 -- -- 64
2020-03-03 03:00:00 6.3 14 Sudoeste 35 Oeste 0 -- -- 66
2020-03-03 02:00:00 7.7 16 Oeste 51 Oeste 0 -- -- 59
2020-03-03 01:00:00 7.7 28 Oeste 43 Oeste 0 -- -- 61
2020-03-03 00:00:00 8.1 31 Oeste 58 Oeste 0 -- -- 57
2020-03-02 23:00:00 8 33 Oeste 62 Oeste 0 -- -- 59
2020-03-02 22:00:00 8.3 32 Noroeste 67 Oeste 0 -- -- 57
2020-03-02 21:00:00 8.8 40 Oeste 72 Oeste 0 -- -- 53
2020-03-02 20:00:00 9.7 46 Oeste 68 Oeste 0 -- -- 49
2020-03-02 19:00:00 10.5 35 Oeste 67 Noroeste 0 -- -- 48
2020-03-02 18:00:00 11.7 47 Noroeste 81 Oeste 0 -- -- 44
2020-03-02 17:00:00 12.7 50 Oeste 68 Oeste 0 -- -- 44
2020-03-02 16:00:00 13.9 46 Oeste 76 Oeste 0 -- -- 43
2020-03-02 15:00:00 14 48 Oeste 74 Oeste 0 -- -- 46
2020-03-02 14:00:00 14.1 46 Oeste 85 Oeste 0 -- -- 45
2020-03-02 13:00:00 13.8 51 Oeste 88 Oeste 0 -- -- 48
2020-03-02 12:00:00 13.4 51 Oeste 91 Oeste 0 -- -- 50
2020-03-02 11:00:00 12.3 47 Oeste 86 Oeste 0.2 -- -- 61
2020-03-02 10:00:00 13.1 50 Oeste 70 Oeste 0 -- -- 59
2020-03-02 09:00:00 12.2 37 Oeste 60 Oeste 0 -- -- 68
2020-03-02 08:00:00 10.9 35 Oeste 93 Oeste 1.4 -- -- 85
2020-03-02 07:00:00 17.5 23 Oeste 55 Sudoeste 0 -- -- 52
2020-03-02 06:00:00 17.1 17 Sudoeste 38 Sudoeste 0 -- -- 54
2020-03-02 05:00:00 14.9 4 Nordeste 22 Sudeste 0 -- -- 61
2020-03-02 04:00:00 14.5 9 Sudeste 20 Sur 0.2 -- -- 61
2020-03-02 03:00:00 15.2 11 Sudeste 26 Sudeste 0 -- -- 52
2020-03-02 02:00:00 14.9 12 Sudeste 26 Sudeste 0 -- -- 52
2020-03-02 01:00:00 15.4 9 Sudeste 17 Sudeste 0 -- -- 51
2020-03-02 00:00:00 15.1 4 Este 12 Este 0 -- -- 53
2020-03-01 23:00:00 15.4 4 Este 17 Sur 0 -- -- 55
2020-03-01 22:00:00 15.2 6 Sur 15 Sudoeste 0 -- -- 55
2020-03-01 21:00:00 16 7 Sudoeste 48 Sudoeste 0 -- -- 53
2020-03-01 20:00:00 17.9 18 Oeste 40 Sudoeste 0 -- -- 46
2020-03-01 19:00:00 18 11 Sudoeste 30 Sudoeste 0 -- -- 43
2020-03-01 18:00:00 20.3 24 Oeste 41 Oeste 0 -- -- 37
2020-03-01 17:00:00 20.7 21 Oeste 51 Oeste 0 -- -- 36
2020-03-01 16:00:00 20.2 30 Oeste 60 Oeste 0 -- -- 38
2020-03-01 15:00:00 18.7 42 Oeste 62 Oeste 0 -- -- 42
2020-03-01 14:00:00 18.9 41 Oeste 63 Oeste 0 -- -- 42
2020-03-01 13:00:00 19 40 Oeste 60 Oeste 0 -- -- 40
2020-03-01 12:00:00 18 29 Oeste 48 Oeste 0 -- -- 45
2020-03-01 11:00:00 16.3 23 Oeste 37 Sudoeste 0 -- -- 49
2020-03-01 10:00:00 14.4 9 Sudoeste 28 Oeste 0 -- -- 53
2020-03-01 09:00:00 13 13 Sudoeste 25 Sudoeste 0 -- -- 56
2020-03-01 08:00:00 11.4 4 Sur 13 Sudoeste 0 -- -- 60
2020-03-01 07:00:00 11.1 5 Sudoeste 15 Sudoeste 0 -- -- 60
2020-03-01 06:00:00 12.1 9 Oeste 25 Oeste 0 -- -- 54
2020-03-01 05:00:00 13.1 17 Oeste 27 Sudoeste 0 -- -- 49
2020-03-01 04:00:00 13.5 20 Oeste 32 Oeste 0 -- -- 48
2020-03-01 03:00:00 13.2 18 Oeste 34 Oeste 0 -- -- 48
2020-03-01 02:00:00 14.1 23 Oeste 35 Oeste 0 -- -- 47
2020-03-01 01:00:00 15.1 19 Oeste 42 Oeste 0 -- -- 44
2020-03-01 00:00:00 15.4 17 Oeste 31 Oeste 0 -- -- 50
2020-02-29 23:00:00 15.8 15 Oeste 24 Sudoeste 0 -- -- 60
2020-02-29 22:00:00 15 4 Sudoeste 15 Sudoeste 0 -- -- 63
2020-02-29 21:00:00 15.7 5 Sur 8 Sudoeste 0 -- -- 62
2020-02-29 20:00:00 14.8 2 Nordeste 5 Este 0 -- -- 69
2020-02-29 19:00:00 15.8 2 Noroeste 4 Oeste 0 -- -- 64
2020-02-29 18:00:00 17.3 3 Nordeste 8 Este 0 -- -- 58
2020-02-29 17:00:00 17.6 3 Norte 8 Norte 0 -- -- 57
2020-02-29 16:00:00 16.9 5 Oeste 15 Noroeste 0 -- -- 59
2020-02-29 15:00:00 16.1 6 Noroeste 15 Oeste 0 -- -- 63
2020-02-29 14:00:00 16.2 5 Noroeste 14 Noroeste 0 -- -- 64
2020-02-29 13:00:00 15.9 3 Oeste 7 Sudoeste 0 -- -- 64
2020-02-29 12:00:00 14.9 3 Sur 7 Oeste 0 -- -- 68
2020-02-29 11:00:00 12.5 2 Sudeste 9 Nordeste 0 -- -- 78
2020-02-29 10:00:00 9.5 5 Oeste 9 Oeste 0 -- -- 88
2020-02-29 09:00:00 7.5 2 Oeste 4 Oeste 0 -- -- 94
2020-02-29 08:00:00 6.8 0 Calma 6 Oeste 0 -- -- 92
2020-02-29 07:00:00 8 2 Noroeste 12 Este 0 -- -- 89
2020-02-29 06:00:00 8.6 3 Nordeste 13 Este 0 -- -- 87
2020-02-29 05:00:00 8.8 3 Nordeste 16 Este 0 -- -- 87
2020-02-29 04:00:00 9.1 4 Este 14 Nordeste 0 -- -- 87
2020-02-29 03:00:00 9.6 12 Nordeste 22 Nordeste 0 -- -- 86
2020-02-29 02:00:00 10 7 Este 22 Nordeste 0 -- -- 85
2020-02-29 01:00:00 10.2 12 Nordeste 23 Nordeste 0 -- -- 86
2020-02-29 00:00:00 10.7 13 Nordeste 21 Nordeste 0 -- -- 85
2020-02-28 23:00:00 12.6 11 Sudeste 24 Sudeste 0 -- -- 78
2020-02-28 22:00:00 12.8 14 Sudeste 25 Sudeste 0 -- -- 79
2020-02-28 21:00:00 13 17 Sudeste 33 Sudeste 0 -- -- 80
2020-02-28 20:00:00 13.6 19 Sudeste 30 Sudeste 0 -- -- 78
2020-02-28 19:00:00 14.7 17 Sudeste 30 Sudeste 0 -- -- 74
2020-02-28 18:00:00 16.9 14 Sudeste 27 Sudeste 0 -- -- 64
2020-02-28 17:00:00 19.5 7 Sur 16 Sudeste 0 -- -- 42
2020-02-28 16:00:00 20.1 6 Sur 14 Sur 0 -- -- 45
2020-02-28 15:00:00 19.7 6 Oeste 22 Oeste 0 -- -- 46
2020-02-28 14:00:00 18.8 9 Oeste 31 Oeste 0 -- -- 48
2020-02-28 13:00:00 18.3 13 Oeste 30 Oeste 0 -- -- 49
2020-02-28 12:00:00 16.4 15 Sudoeste 25 Sudoeste 0 -- -- 55
2020-02-28 11:00:00 15.5 11 Sudoeste 26 Oeste 0 -- -- 59
2020-02-28 10:00:00 13.4 9 Sudoeste 16 Sudoeste 0 -- -- 67
2020-02-28 09:00:00 11.6 8 Sudoeste 16 Sudoeste 0 -- -- 74
2020-02-28 08:00:00 10.5 6 Sur 18 Sudoeste 0 -- -- 77
2020-02-28 07:00:00 10.5 10 Sudoeste 16 Sudoeste 0 -- -- 78
2020-02-28 06:00:00 11.3 5 Sudoeste 13 Sur 0 -- -- 74
2020-02-28 05:00:00 12.4 3 Oeste 7 Noroeste 0 -- -- 72
2020-02-28 04:00:00 13.2 8 Sudoeste 29 Noroeste 0 -- -- 68
2020-02-28 03:00:00 13.1 7 Norte 29 Oeste 0 -- -- 68
2020-02-28 02:00:00 13.2 4 Oeste 36 Oeste 0 -- -- 66
2020-02-28 01:00:00 14 18 Oeste 60 Oeste 0 -- -- 63
2020-02-28 00:00:00 14.9 30 Noroeste 47 Oeste 0 -- -- 60